createdAt,value
2023-02-17T00:01:10.868Z,8.70
2023-02-17T00:03:37.436Z,9.00
2023-02-17T00:06:09.306Z,8.40
2023-02-17T00:08:36.510Z,7.95
2023-02-17T00:11:03.814Z,8.82
2023-02-17T00:13:30.499Z,9.10
2023-02-17T00:15:57.078Z,8.32
2023-02-17T00:18:23.821Z,8.35
2023-02-17T00:20:50.821Z,8.95
2023-02-17T00:23:17.906Z,8.48
2023-02-17T00:25:44.912Z,7.72
2023-02-17T00:28:11.615Z,8.02
2023-02-17T00:30:39.348Z,8.05
2023-02-17T00:33:05.883Z,8.70
2023-02-17T00:35:32.641Z,7.80
2023-02-17T00:37:59.226Z,9.32
2023-02-17T00:40:25.662Z,7.60
2023-02-17T00:42:55.076Z,8.02
2023-02-17T00:45:21.853Z,8.07
2023-02-17T00:47:48.848Z,8.18
2023-02-17T00:50:16.838Z,8.10
2023-02-17T00:52:43.637Z,7.22
2023-02-17T00:55:10.362Z,7.35
2023-02-17T00:57:37.151Z,7.47
2023-02-17T01:00:04.571Z,8.05
2023-02-17T01:02:33.676Z,7.25
2023-02-17T01:05:00.216Z,7.50
2023-02-17T01:07:27.319Z,7.88
2023-02-17T01:09:53.739Z,8.57
2023-02-17T01:12:20.728Z,7.90
2023-02-17T01:14:47.547Z,7.68
2023-02-17T01:17:14.100Z,8.18
2023-02-17T01:19:40.584Z,8.15
2023-02-17T01:22:07.078Z,7.70
2023-02-17T01:24:34.018Z,7.50
2023-02-17T01:29:28.843Z,7.68
2023-02-17T01:31:55.546Z,7.55
2023-02-17T01:34:22.032Z,7.20
2023-02-17T01:36:48.492Z,8.73
2023-02-17T01:39:16.195Z,7.57
2023-02-17T01:41:46.143Z,8.02
2023-02-17T01:44:19.139Z,7.38
2023-02-17T01:46:48.288Z,7.40
2023-02-17T01:49:39.494Z,7.70
2023-02-17T01:52:25.061Z,7.90
2023-02-17T01:54:59.653Z,7.65
2023-02-17T01:57:32.882Z,7.63
2023-02-17T02:00:00.140Z,7.20
2023-02-17T02:02:30.089Z,7.18
2023-02-17T02:04:56.858Z,7.15
2023-02-17T02:07:44.310Z,6.97
2023-02-17T02:10:13.329Z,7.45
2023-02-17T02:12:42.442Z,7.30
2023-02-17T02:15:08.982Z,7.32
2023-02-17T02:17:54.525Z,7.32
2023-02-17T02:20:33.891Z,6.78
2023-02-17T02:23:21.812Z,6.93
2023-02-17T02:26:05.196Z,6.70
2023-02-17T02:29:06.855Z,7.35
2023-02-17T02:31:48.783Z,7.10
2023-02-17T02:34:23.903Z,7.45
2023-02-17T02:36:53.571Z,6.95
2023-02-17T02:39:25.074Z,7.00
2023-02-17T02:41:58.923Z,6.80
2023-02-17T02:44:25.740Z,6.97
2023-02-17T02:47:34.281Z,6.22
2023-02-17T02:50:00.980Z,5.63
2023-02-17T02:52:40.648Z,6.45
2023-02-17T02:55:28.996Z,6.60
2023-02-17T02:58:12.032Z,6.25
2023-02-17T03:01:06.311Z,6.28
2023-02-17T03:03:48.621Z,6.28
2023-02-17T03:06:43.687Z,6.50
2023-02-17T03:09:26.201Z,6.40
2023-02-17T03:11:58.415Z,6.40
2023-02-17T03:14:27.739Z,6.40
2023-02-17T03:16:55.541Z,6.32
2023-02-17T03:19:25.144Z,6.03
2023-02-17T03:22:07.958Z,6.95
2023-02-17T03:24:35.653Z,6.53
2023-02-17T03:27:02.387Z,6.22
2023-02-17T03:29:29.225Z,6.65
2023-02-17T03:31:56.059Z,6.38
2023-02-17T03:34:22.735Z,6.35
2023-02-17T03:36:49.222Z,6.40
2023-02-17T03:39:16.771Z,6.80
2023-02-17T03:41:43.506Z,6.35
2023-02-17T03:44:10.175Z,6.55
2023-02-17T03:46:39.052Z,5.78
2023-02-17T03:49:05.606Z,5.88
2023-02-17T03:51:32.118Z,6.53
2023-02-17T03:53:58.623Z,6.18
2023-02-17T03:56:25.431Z,6.18
2023-02-17T03:58:52.189Z,6.57
2023-02-17T04:01:18.854Z,6.32
2023-02-17T04:03:45.581Z,6.45
2023-02-17T04:06:12.396Z,6.82
2023-02-17T04:08:40.054Z,6.95
2023-02-17T04:11:07.751Z,6.00
2023-02-17T04:13:35.094Z,6.45
2023-02-17T04:16:04.522Z,6.80
2023-02-17T04:18:32.478Z,6.68
2023-02-17T04:20:59.314Z,7.18
2023-02-17T04:23:26.223Z,6.65
2023-02-17T04:25:52.895Z,6.20
2023-02-17T04:28:19.365Z,6.75
2023-02-17T04:30:47.569Z,6.78
2023-02-17T04:33:15.282Z,7.22
2023-02-17T04:35:42.469Z,7.10
2023-02-17T04:38:10.710Z,6.22
2023-02-17T04:40:38.170Z,6.20
2023-02-17T04:43:05.349Z,6.82
2023-02-17T04:45:32.420Z,6.70
2023-02-17T04:47:59.243Z,6.57
2023-02-17T04:50:26.191Z,6.53
2023-02-17T04:52:52.735Z,6.30
2023-02-17T04:55:19.668Z,6.68
2023-02-17T04:57:46.221Z,6.68
2023-02-17T05:00:13.251Z,6.78
2023-02-17T05:02:39.682Z,6.70
2023-02-17T05:05:07.062Z,6.85
2023-02-17T05:07:33.818Z,6.78
2023-02-17T05:10:00.563Z,7.25
2023-02-17T05:12:27.348Z,6.72
2023-02-17T05:14:53.850Z,6.53
2023-02-17T05:17:20.563Z,7.18
2023-02-17T05:19:47.281Z,6.80
2023-02-17T05:22:14.055Z,7.22
2023-02-17T05:24:40.627Z,6.50
2023-02-17T05:27:07.309Z,6.28
2023-02-17T05:29:34.230Z,6.85
2023-02-17T05:32:01.121Z,5.97
2023-02-17T05:34:27.598Z,6.35
2023-02-17T05:36:54.279Z,6.65
2023-02-17T05:39:20.773Z,6.60
2023-02-17T05:41:47.497Z,6.55
2023-02-17T05:44:14.190Z,6.30
2023-02-17T05:46:41.098Z,6.40
2023-02-17T05:49:07.658Z,6.68
2023-02-17T05:51:34.128Z,7.15
2023-02-17T05:54:00.599Z,6.32
2023-02-17T05:56:27.385Z,7.00
2023-02-17T05:58:54.004Z,6.22
2023-02-17T06:01:20.823Z,6.50
2023-02-17T06:03:47.551Z,7.13
2023-02-17T06:06:13.992Z,6.53
2023-02-17T06:08:41.021Z,6.57
2023-02-17T06:11:07.549Z,6.57
2023-02-17T06:13:34.240Z,6.82
2023-02-17T06:16:00.807Z,5.90
2023-02-17T06:18:27.602Z,5.90
2023-02-17T06:20:58.382Z,5.70
2023-02-17T06:23:26.520Z,6.03
2023-02-17T06:25:53.444Z,6.18
2023-02-17T06:28:20.448Z,5.82
2023-02-17T06:30:47.233Z,5.50
2023-02-17T06:33:13.936Z,5.78
2023-02-17T06:35:40.813Z,6.18
2023-02-17T06:38:07.393Z,5.85
2023-02-17T06:40:33.909Z,5.85
2023-02-17T06:43:00.620Z,5.15
2023-02-17T06:45:27.557Z,5.82
2023-02-17T06:47:54.306Z,6.00
2023-02-17T06:50:21.799Z,5.85
2023-02-17T06:52:48.493Z,5.78
2023-02-17T06:55:16.204Z,5.70
2023-02-17T06:57:43.004Z,6.07
2023-02-17T07:00:09.900Z,6.10
2023-02-17T07:02:39.999Z,6.75
2023-02-17T07:05:07.988Z,6.15
2023-02-17T07:07:34.565Z,6.38
2023-02-17T07:10:01.064Z,6.65
2023-02-17T07:12:28.871Z,6.25
2023-02-17T07:14:55.827Z,6.78
2023-02-17T07:17:22.371Z,7.30
2023-02-17T07:19:49.000Z,6.72
2023-02-17T07:22:15.749Z,6.55
2023-02-17T07:24:42.177Z,6.70
2023-02-17T07:27:10.695Z,6.32
2023-02-17T07:32:04.299Z,6.47
2023-02-17T07:34:31.113Z,6.85
2023-02-17T07:36:57.540Z,6.72
2023-02-17T07:39:24.458Z,6.63
2023-02-17T07:41:51.403Z,6.43
2023-02-17T07:44:18.533Z,6.47
2023-02-17T07:46:45.067Z,6.10
2023-02-17T07:49:12.359Z,6.38
2023-02-17T07:51:38.972Z,6.38
2023-02-17T07:54:05.749Z,6.57
2023-02-17T07:56:33.771Z,5.65
2023-02-17T07:59:00.406Z,6.35
2023-02-17T08:01:26.882Z,6.75
2023-02-17T08:03:53.798Z,6.25
2023-02-17T08:06:23.796Z,6.03
2023-02-17T08:09:10.106Z,5.63
2023-02-17T08:12:06.555Z,6.28
2023-02-17T08:14:33.514Z,5.95
2023-02-17T08:17:00.496Z,6.43
2023-02-17T08:19:36.679Z,5.50
2023-02-17T08:22:09.488Z,6.25
2023-02-17T08:24:36.275Z,6.22
2023-02-17T08:27:02.732Z,5.95
2023-02-17T08:29:29.440Z,5.88
2023-02-17T08:31:56.270Z,5.97
2023-02-17T08:34:23.069Z,5.75
2023-02-17T08:36:49.637Z,6.07
2023-02-17T08:39:18.854Z,5.82
2023-02-17T08:41:46.586Z,5.82
2023-02-17T08:44:19.275Z,4.70
2023-02-17T08:46:48.155Z,5.18
2023-02-17T08:49:22.042Z,6.30
2023-02-17T08:51:49.908Z,5.57
2023-02-17T08:54:17.359Z,6.03
2023-02-17T08:56:44.415Z,5.88
2023-02-17T08:59:13.267Z,5.93
2023-02-17T09:01:41.988Z,6.00
2023-02-17T09:06:40.342Z,5.28
2023-02-17T09:09:10.347Z,5.25
2023-02-17T09:11:37.884Z,5.80
2023-02-17T09:14:05.638Z,5.90
2023-02-17T09:16:32.073Z,5.75
2023-02-17T09:18:58.778Z,6.13
2023-02-17T09:21:25.462Z,4.93
2023-02-17T09:23:53.768Z,5.60
2023-02-17T09:26:21.726Z,5.88
2023-02-17T09:28:48.514Z,5.97
2023-02-17T09:31:19.096Z,6.35
2023-02-17T09:33:47.990Z,5.18
2023-02-17T09:36:17.804Z,5.35
2023-02-17T09:38:44.885Z,5.88
2023-02-17T09:41:17.851Z,5.88
2023-02-17T09:43:45.121Z,5.75
2023-02-17T09:46:33.394Z,5.93
2023-02-17T09:49:07.237Z,6.05
2023-02-17T09:51:43.978Z,5.60
2023-02-17T09:54:16.712Z,5.78
2023-02-17T09:56:46.372Z,5.90
2023-02-17T09:59:21.294Z,5.93
2023-02-17T10:01:49.517Z,5.40
2023-02-17T10:04:22.802Z,5.63
2023-02-17T10:07:02.337Z,5.63
2023-02-17T10:09:34.427Z,5.30
2023-02-17T10:12:13.844Z,5.38
2023-02-17T10:14:55.575Z,4.63
2023-02-17T10:22:27.609Z,5.05
2023-02-17T10:24:54.814Z,5.10
2023-02-17T10:27:38.644Z,5.20
2023-02-17T10:30:31.045Z,5.70
2023-02-17T10:33:14.215Z,4.20
2023-02-17T10:35:59.070Z,4.28
2023-02-17T10:38:33.810Z,4.32
2023-02-17T10:41:02.238Z,4.30
2023-02-17T10:43:32.665Z,5.00
2023-02-17T10:46:06.909Z,4.32
2023-02-17T10:48:50.569Z,4.00
2023-02-17T10:51:25.045Z,3.78
2023-02-17T10:53:57.454Z,4.22
2023-02-17T10:56:32.758Z,3.63
2023-02-17T10:59:46.140Z,3.42
2023-02-17T11:02:43.172Z,3.47
2023-02-17T11:05:30.988Z,3.38
2023-02-17T11:08:02.587Z,3.10
2023-02-17T11:10:33.903Z,3.50
2023-02-17T11:13:03.629Z,3.25
2023-02-17T11:15:36.010Z,3.65
2023-02-17T11:18:10.477Z,3.65
2023-02-17T11:20:37.647Z,3.63
2023-02-17T11:23:16.408Z,3.20
2023-02-17T11:25:54.196Z,3.50
2023-02-17T11:28:25.908Z,3.17
2023-02-17T11:30:58.514Z,3.72
2023-02-17T11:33:39.543Z,3.00
2023-02-17T11:36:08.456Z,3.47
2023-02-17T11:38:38.344Z,2.88
2023-02-17T11:41:07.770Z,3.10
2023-02-17T11:43:35.801Z,3.33
2023-02-17T11:46:13.630Z,3.30
2023-02-17T11:49:05.057Z,3.22
2023-02-17T11:52:00.020Z,2.70
2023-02-17T11:54:36.001Z,2.90
2023-02-17T11:57:24.352Z,2.80
2023-02-17T12:00:02.307Z,3.10
2023-02-17T12:03:06.679Z,3.00
2023-02-17T12:05:55.912Z,2.97
2023-02-17T12:08:52.803Z,3.08
2023-02-17T12:11:46.130Z,2.50
2023-02-17T12:14:45.776Z,2.60
2023-02-17T12:17:22.386Z,2.92
2023-02-17T12:20:08.618Z,2.50
2023-02-17T12:22:52.908Z,3.40
2023-02-17T12:25:27.194Z,2.50
2023-02-17T12:28:15.394Z,2.88
2023-02-17T12:30:51.298Z,2.88
2023-02-17T12:33:36.405Z,2.50
2023-02-17T12:36:07.985Z,2.78
2023-02-17T12:38:44.146Z,3.13
2023-02-17T12:41:36.494Z,3.00
2023-02-17T12:44:29.277Z,2.95
2023-02-17T12:47:06.719Z,2.90
2023-02-17T12:49:50.813Z,2.88
2023-02-17T12:52:28.365Z,2.70
2023-02-17T12:55:35.557Z,3.05
2023-02-17T12:58:08.333Z,2.85
2023-02-17T13:00:44.605Z,2.90
2023-02-17T13:03:11.498Z,3.10
2023-02-17T13:05:44.374Z,3.30
2023-02-17T13:08:18.749Z,3.20
2023-02-17T13:10:45.229Z,2.42
2023-02-17T13:13:25.543Z,2.45
2023-02-17T13:16:04.871Z,3.20
2023-02-17T13:18:35.095Z,2.95
2023-02-17T13:21:17.052Z,2.97
2023-02-17T13:23:57.155Z,3.92
2023-02-17T13:26:23.544Z,3.20
2023-02-17T13:28:53.340Z,2.88
2023-02-17T13:31:26.042Z,3.72
2023-02-17T13:33:56.572Z,2.70
2023-02-17T13:36:29.033Z,2.70
2023-02-17T13:39:24.612Z,3.17
2023-02-17T13:41:51.379Z,2.28
2023-02-17T13:44:34.303Z,2.50
2023-02-17T13:47:06.759Z,2.40
2023-02-17T13:49:35.071Z,2.45
2023-02-17T13:52:09.858Z,2.10
2023-02-17T13:54:36.771Z,1.92
2023-02-17T13:57:03.780Z,2.17
2023-02-17T13:59:31.336Z,2.00
2023-02-17T14:01:57.847Z,2.00
2023-02-17T14:04:30.884Z,1.90
2023-02-17T14:06:59.912Z,1.70
2023-02-17T14:09:29.436Z,1.80
2023-02-17T14:11:57.933Z,1.60
2023-02-17T14:14:31.011Z,1.65
2023-02-17T14:17:03.130Z,1.65
2023-02-17T14:19:41.000Z,1.77
2023-02-17T14:22:07.666Z,1.73
2023-02-17T14:24:38.773Z,1.65
2023-02-17T14:27:08.852Z,1.70
2023-02-17T14:29:47.122Z,1.58
2023-02-17T14:32:35.384Z,1.65
2023-02-17T14:35:14.103Z,1.90
2023-02-17T14:37:41.932Z,1.85
2023-02-17T14:40:20.913Z,1.40
2023-02-17T14:42:48.114Z,1.50
2023-02-17T14:45:15.893Z,1.33
2023-02-17T14:47:42.915Z,1.30
2023-02-17T14:50:10.124Z,1.30
2023-02-17T14:52:42.349Z,1.30
2023-02-17T14:55:36.283Z,2.20
2023-02-17T14:58:03.676Z,1.75
2023-02-17T15:00:30.579Z,1.83
2023-02-17T15:02:57.448Z,2.00
2023-02-17T15:05:25.241Z,2.08
2023-02-17T15:07:52.045Z,1.92
2023-02-17T15:10:28.930Z,2.35
2023-02-17T15:12:56.623Z,2.92
2023-02-17T15:15:23.505Z,2.08
2023-02-17T15:17:50.247Z,2.40
2023-02-17T15:20:17.256Z,2.10
2023-02-17T15:22:44.571Z,2.42
2023-02-17T15:25:19.813Z,2.28
2023-02-17T15:27:46.671Z,2.60
2023-02-17T15:30:18.508Z,2.72
2023-02-17T15:32:46.107Z,2.90
2023-02-17T15:35:18.490Z,3.13
2023-02-17T15:37:45.291Z,3.10
2023-02-17T15:40:17.670Z,3.30
2023-02-17T15:42:46.002Z,3.10
2023-02-17T15:45:15.657Z,3.10
2023-02-17T15:47:42.344Z,3.10
2023-02-17T15:50:20.860Z,2.80
2023-02-17T15:52:47.971Z,3.08
2023-02-17T15:55:14.630Z,3.40
2023-02-17T15:57:46.105Z,2.60
2023-02-17T16:00:34.607Z,2.80
2023-02-17T16:03:01.157Z,2.85
2023-02-17T16:05:29.908Z,3.13
2023-02-17T16:10:27.422Z,2.65
2023-02-17T16:12:56.907Z,2.80
2023-02-17T16:15:26.122Z,2.70
2023-02-17T16:17:53.075Z,2.35
2023-02-17T16:20:28.517Z,3.17
2023-02-17T16:22:55.455Z,2.65
2023-02-17T16:25:22.724Z,2.92
2023-02-17T16:27:50.980Z,2.80
2023-02-17T16:30:22.212Z,2.92
2023-02-17T16:32:49.796Z,3.20
2023-02-17T16:35:23.284Z,2.83
2023-02-17T16:37:55.004Z,3.40
2023-02-17T16:40:25.039Z,2.97
2023-02-17T16:42:52.620Z,3.05
2023-02-17T16:45:21.911Z,3.38
2023-02-17T16:47:50.932Z,3.40
2023-02-17T16:50:24.660Z,3.17
2023-02-17T16:52:54.253Z,3.45
2023-02-17T16:55:24.969Z,3.47
2023-02-17T16:57:52.059Z,3.40
2023-02-17T17:00:22.064Z,3.40
2023-02-17T17:02:49.558Z,3.50
2023-02-17T17:05:17.892Z,3.72
2023-02-17T17:07:45.036Z,3.95
2023-02-17T17:10:19.077Z,3.35
2023-02-17T17:12:46.697Z,3.85
2023-02-17T17:15:14.451Z,3.63
2023-02-17T17:18:02.789Z,3.85
2023-02-17T17:20:34.076Z,3.60
2023-02-17T17:23:09.169Z,3.70
2023-02-17T17:25:40.975Z,3.92
2023-02-17T17:28:07.636Z,4.05
2023-02-17T17:30:35.651Z,3.92
2023-02-17T17:33:02.874Z,3.90
2023-02-17T17:35:30.123Z,5.90
2023-02-17T17:38:00.109Z,4.72
2023-02-17T17:40:31.389Z,4.28
2023-02-17T17:42:59.263Z,3.85
2023-02-17T17:45:26.070Z,4.40
2023-02-17T17:47:52.760Z,4.38
2023-02-17T17:50:23.299Z,4.13
2023-02-17T17:52:49.826Z,4.40
2023-02-17T17:55:16.637Z,4.15
2023-02-17T17:57:44.402Z,4.32
2023-02-17T18:00:14.155Z,3.90
2023-02-17T18:02:43.641Z,4.07
2023-02-17T18:05:10.454Z,4.38
2023-02-17T18:07:38.602Z,3.92
2023-02-17T18:10:08.489Z,3.97
2023-02-17T18:12:35.469Z,4.28
2023-02-17T18:15:04.199Z,4.45
2023-02-17T18:20:02.268Z,4.00
2023-02-17T18:22:28.742Z,4.38
2023-02-17T18:24:55.502Z,4.13
2023-02-17T18:27:22.797Z,3.78
2023-02-17T18:29:49.282Z,4.05
2023-02-17T18:32:15.783Z,4.00
2023-02-17T18:34:42.585Z,4.40
2023-02-17T18:37:09.005Z,4.30
2023-02-17T18:39:35.521Z,4.32
2023-02-17T18:42:02.167Z,4.13
2023-02-17T18:44:28.638Z,4.28
2023-02-17T18:46:55.144Z,4.18
2023-02-17T18:49:21.595Z,4.43
2023-02-17T18:51:48.420Z,4.13
2023-02-17T18:54:15.199Z,4.35
2023-02-17T18:56:41.918Z,3.65
2023-02-17T18:59:08.478Z,4.10
2023-02-17T19:01:39.134Z,4.10
2023-02-17T19:04:05.934Z,3.85
2023-02-17T19:06:34.760Z,5.13
2023-02-17T19:09:04.298Z,4.43
2023-02-17T19:11:32.679Z,4.60
2023-02-17T19:14:01.354Z,5.00
2023-02-17T19:16:29.810Z,4.72
2023-02-17T19:18:57.186Z,4.57
2023-02-17T19:21:24.259Z,4.60
2023-02-17T19:23:51.433Z,4.90
2023-02-17T19:26:18.918Z,4.97
2023-02-17T19:28:46.052Z,5.22
2023-02-17T19:31:15.831Z,4.70
2023-02-17T19:33:44.314Z,4.30
2023-02-17T19:36:13.692Z,4.65
2023-02-17T19:38:40.617Z,4.43
2023-02-17T19:41:09.570Z,4.80
2023-02-17T19:43:36.345Z,5.20
2023-02-17T19:46:03.420Z,5.30
2023-02-17T19:48:30.245Z,5.20
2023-02-17T19:51:02.294Z,4.93
2023-02-17T19:53:29.209Z,4.85
2023-02-17T19:55:56.021Z,5.28
2023-02-17T19:58:22.445Z,5.20
2023-02-17T20:00:49.194Z,5.57
2023-02-17T20:03:15.854Z,5.65
2023-02-17T20:05:42.661Z,5.38
2023-02-17T20:08:09.153Z,5.28
2023-02-17T20:10:39.750Z,5.68
2023-02-17T20:13:06.515Z,5.72
2023-02-17T20:15:34.165Z,5.28
2023-02-17T20:18:00.592Z,5.78
2023-02-17T20:20:27.218Z,6.55
2023-02-17T20:22:53.727Z,5.95
2023-02-17T20:25:20.379Z,5.75
2023-02-17T20:27:46.855Z,5.72
2023-02-17T20:30:13.738Z,7.13
2023-02-17T20:32:40.351Z,5.80
2023-02-17T20:35:08.200Z,5.85
2023-02-17T20:37:34.883Z,5.68
2023-02-17T20:40:03.352Z,5.72
2023-02-17T20:42:30.307Z,5.85
2023-02-17T20:44:56.986Z,6.32
2023-02-17T20:47:23.824Z,7.10
2023-02-17T20:49:50.372Z,7.18
2023-02-17T20:52:16.921Z,6.47
2023-02-17T20:54:44.507Z,6.60
2023-02-17T20:57:14.302Z,6.38
2023-02-17T20:59:40.961Z,6.57
2023-02-17T21:02:07.871Z,6.50
2023-02-17T21:04:34.509Z,6.20
2023-02-17T21:07:01.565Z,7.10
2023-02-17T21:09:28.097Z,6.63
2023-02-17T21:11:54.540Z,7.50
2023-02-17T21:14:20.971Z,6.63
2023-02-17T21:16:47.800Z,6.78
2023-02-17T21:19:14.486Z,7.07
2023-02-17T21:21:41.541Z,7.97
2023-02-17T21:24:08.134Z,6.97
2023-02-17T21:26:35.022Z,7.32
2023-02-17T21:29:01.681Z,7.82
2023-02-17T21:31:31.211Z,7.75
2023-02-17T21:33:59.044Z,7.10
2023-02-17T21:36:28.077Z,8.02
2023-02-17T21:38:55.614Z,7.70
2023-02-17T21:41:27.512Z,7.25
2023-02-17T21:44:13.610Z,7.72
2023-02-17T21:46:43.049Z,7.43
2023-02-17T21:49:10.333Z,7.50
2023-02-17T21:51:38.399Z,7.80
2023-02-17T21:54:06.106Z,7.00
2023-02-17T21:56:33.116Z,7.15
2023-02-17T21:58:59.972Z,8.23
2023-02-17T22:01:27.605Z,6.93
2023-02-17T22:03:54.858Z,8.07
2023-02-17T22:06:27.067Z,7.95
2023-02-17T22:08:53.741Z,7.95
2023-02-17T22:11:27.031Z,8.38
2023-02-17T22:13:55.927Z,7.38
2023-02-17T22:16:23.328Z,8.70
2023-02-17T22:18:50.351Z,7.28
2023-02-17T22:21:17.442Z,7.72
2023-02-17T22:23:45.164Z,8.98
2023-02-17T22:26:15.066Z,8.18
2023-02-17T22:28:42.019Z,7.68
2023-02-17T22:31:08.739Z,7.93
2023-02-17T22:33:35.380Z,7.43
2023-02-17T22:36:08.298Z,7.32
2023-02-17T22:38:34.988Z,7.90
2023-02-17T22:41:06.581Z,7.95
2023-02-17T22:43:36.237Z,6.82
2023-02-17T22:46:03.499Z,8.38
2023-02-17T22:48:32.755Z,7.93
2023-02-17T22:51:04.875Z,7.95
2023-02-17T22:53:31.356Z,7.97
2023-02-17T22:55:58.197Z,7.55
2023-02-17T22:58:26.387Z,7.93
2023-02-17T23:01:05.962Z,8.00
2023-02-17T23:03:33.424Z,8.55
2023-02-17T23:06:04.363Z,7.70
2023-02-17T23:08:31.063Z,7.25
2023-02-17T23:10:57.920Z,7.63
2023-02-17T23:13:24.525Z,7.78
2023-02-17T23:15:51.211Z,8.20
2023-02-17T23:18:19.364Z,8.13
2023-02-17T23:20:49.880Z,8.05
2023-02-17T23:23:16.379Z,7.55
2023-02-17T23:25:48.298Z,8.05
2023-02-17T23:28:14.901Z,7.90
2023-02-17T23:30:44.440Z,8.00
2023-02-17T23:33:10.988Z,8.32
2023-02-17T23:35:44.859Z,8.63
2023-02-17T23:38:12.679Z,8.40
2023-02-17T23:40:39.793Z,7.88
2023-02-17T23:43:06.830Z,8.38
2023-02-17T23:45:34.932Z,9.77
2023-02-17T23:48:02.046Z,8.15
2023-02-17T23:50:28.728Z,8.27
2023-02-17T23:52:55.366Z,8.80
2023-02-17T23:55:21.950Z,8.43
2023-02-17T23:57:48.604Z,8.55
